createdAt,value
2018-05-31T00:04:21.163Z,60.09
2018-05-31T00:06:52.881Z,60.32
2018-05-31T00:09:21.927Z,60.53
2018-05-31T00:11:50.918Z,60.64
2018-05-31T00:14:19.995Z,60.80
2018-05-31T00:16:49.025Z,61.12
2018-05-31T00:19:18.051Z,60.88
2018-05-31T00:21:47.158Z,60.89
2018-05-31T00:24:16.499Z,61.06
2018-05-31T00:29:43.318Z,61.34
2018-05-31T00:32:12.706Z,61.53
2018-05-31T00:34:41.700Z,61.96
2018-05-31T00:37:11.097Z,64.50
2018-05-31T00:39:40.377Z,66.71
2018-05-31T00:42:09.388Z,67.26
2018-05-31T00:44:38.413Z,66.96
2018-05-31T00:47:07.447Z,66.13
2018-05-31T00:49:36.453Z,65.25
2018-05-31T00:52:05.684Z,64.82
2018-05-31T00:54:34.965Z,64.57
2018-05-31T00:57:03.929Z,64.24
2018-05-31T00:59:33.018Z,64.14
2018-05-31T01:02:02.060Z,64.16
2018-05-31T01:04:31.412Z,64.26
2018-05-31T01:07:00.651Z,64.28
2018-05-31T01:09:29.975Z,64.29
2018-05-31T01:11:59.284Z,64.51
2018-05-31T01:14:28.527Z,64.30
2018-05-31T01:16:57.525Z,64.57
2018-05-31T01:19:26.580Z,64.68
2018-05-31T01:21:56.090Z,64.94
2018-05-31T01:24:25.107Z,64.81
2018-05-31T01:26:53.907Z,64.87
2018-05-31T01:29:23.366Z,64.96
2018-05-31T01:31:52.587Z,65.13
2018-05-31T01:34:21.590Z,65.09
2018-05-31T01:36:50.569Z,65.09
2018-05-31T01:39:21.046Z,65.38
2018-05-31T01:41:51.988Z,65.88
2018-05-31T01:44:22.930Z,65.83
2018-05-31T01:46:52.603Z,65.80
2018-05-31T01:49:23.338Z,65.73
2018-05-31T01:51:54.563Z,65.85
2018-05-31T01:54:25.309Z,65.79
2018-05-31T01:56:54.571Z,65.77
2018-05-31T01:59:25.259Z,65.79
2018-05-31T02:01:57.053Z,65.77
2018-05-31T02:04:28.885Z,65.91
2018-05-31T02:06:58.937Z,66.04
2018-05-31T02:09:29.982Z,66.16
2018-05-31T02:12:01.907Z,66.55
2018-05-31T02:14:32.048Z,66.54
2018-05-31T02:17:03.561Z,66.54
2018-05-31T02:19:34.228Z,66.71
2018-05-31T02:22:05.069Z,66.93
2018-05-31T02:24:36.182Z,67.31
2018-05-31T02:27:07.091Z,67.24
2018-05-31T02:29:38.246Z,67.00
2018-05-31T02:32:09.013Z,67.26
2018-05-31T02:34:39.783Z,67.11
2018-05-31T02:37:10.475Z,67.01
2018-05-31T02:39:41.585Z,67.02
2018-05-31T02:42:12.450Z,67.15
2018-05-31T02:44:44.348Z,67.33
2018-05-31T02:47:14.999Z,67.66
2018-05-31T02:49:46.046Z,67.48
2018-05-31T02:52:17.736Z,67.34
2018-05-31T02:54:48.572Z,67.43
2018-05-31T02:57:19.240Z,67.32
2018-05-31T02:59:50.184Z,67.24
2018-05-31T03:02:20.975Z,67.23
2018-05-31T03:04:52.834Z,67.28
2018-05-31T03:07:23.817Z,67.44
2018-05-31T03:09:54.766Z,67.45
2018-05-31T03:12:25.553Z,67.88
2018-05-31T03:14:54.592Z,68.31
2018-05-31T03:17:25.718Z,68.21
2018-05-31T03:19:56.538Z,68.32
2018-05-31T03:22:27.610Z,68.39
2018-05-31T03:24:57.723Z,66.92
2018-05-31T03:27:28.358Z,65.81
2018-05-31T03:29:59.611Z,65.06
2018-05-31T03:32:31.601Z,64.39
2018-05-31T03:35:02.602Z,64.12
2018-05-31T03:37:33.716Z,63.63
2018-05-31T03:40:04.085Z,63.25
2018-05-31T03:42:34.950Z,63.25
2018-05-31T03:45:05.617Z,62.78
2018-05-31T03:47:36.692Z,62.58
2018-05-31T03:50:07.608Z,62.41
2018-05-31T03:52:38.168Z,62.40
2018-05-31T03:55:08.924Z,62.40
2018-05-31T03:57:39.792Z,62.24
2018-05-31T04:00:10.638Z,61.96
2018-05-31T04:02:41.472Z,61.86
2018-05-31T04:05:12.174Z,61.92
2018-05-31T04:07:42.853Z,61.89
2018-05-31T04:10:13.988Z,61.67
2018-05-31T04:12:44.601Z,61.69
2018-05-31T04:15:15.618Z,61.97
2018-05-31T04:17:46.543Z,61.70
2018-05-31T04:20:17.620Z,61.88
2018-05-31T04:22:48.449Z,62.28
2018-05-31T04:25:19.743Z,63.22
2018-05-31T04:27:51.776Z,62.47
2018-05-31T04:30:21.045Z,62.20
2018-05-31T04:32:53.233Z,62.13
2018-05-31T04:35:24.867Z,62.94
2018-05-31T04:37:55.482Z,62.53
2018-05-31T04:40:25.285Z,62.95
2018-05-31T04:42:55.898Z,62.66
2018-05-31T04:45:28.641Z,64.21
2018-05-31T04:47:58.233Z,63.23
2018-05-31T04:50:30.400Z,62.60
2018-05-31T04:53:01.314Z,62.21
2018-05-31T04:55:33.172Z,63.26
2018-05-31T04:58:02.170Z,62.41
2018-05-31T05:00:31.274Z,62.57
2018-05-31T05:03:00.612Z,63.04
2018-05-31T05:05:32.296Z,62.66
2018-05-31T05:08:03.118Z,62.00
2018-05-31T05:10:34.300Z,61.95
2018-05-31T05:13:04.220Z,62.06
2018-05-31T05:15:35.132Z,61.30
2018-05-31T05:18:05.465Z,61.24
2018-05-31T05:20:36.709Z,61.87
2018-05-31T05:23:07.620Z,61.27
2018-05-31T05:25:36.638Z,60.63
2018-05-31T05:28:05.650Z,60.44
2018-05-31T05:30:34.847Z,60.46
2018-05-31T05:33:03.881Z,60.09
2018-05-31T05:35:33.090Z,59.95
2018-05-31T05:38:02.125Z,59.48
2018-05-31T05:40:31.082Z,59.15
2018-05-31T05:43:00.380Z,58.96
2018-05-31T05:45:29.388Z,58.73
2018-05-31T05:47:58.671Z,59.01
2018-05-31T05:50:27.672Z,59.08
2018-05-31T05:52:56.700Z,58.29
2018-05-31T05:55:25.906Z,58.42
2018-05-31T05:57:55.013Z,57.84
2018-05-31T06:00:24.132Z,58.03
2018-05-31T06:02:53.459Z,57.86
2018-05-31T06:05:22.525Z,57.64
2018-05-31T06:07:51.544Z,57.31
2018-05-31T06:10:20.591Z,57.48
2018-05-31T06:12:49.795Z,57.36
2018-05-31T06:15:18.786Z,56.90
2018-05-31T06:17:47.799Z,56.92
2018-05-31T06:20:16.793Z,56.86
2018-05-31T06:22:45.973Z,56.65
2018-05-31T06:25:14.959Z,56.25
2018-05-31T06:27:43.958Z,55.82
2018-05-31T06:30:12.959Z,55.79
2018-05-31T06:32:42.287Z,55.09
2018-05-31T06:35:11.121Z,54.85
2018-05-31T06:37:40.133Z,53.90
2018-05-31T06:40:09.277Z,54.21
2018-05-31T06:42:38.598Z,53.86
2018-05-31T06:45:07.646Z,52.93
2018-05-31T06:47:36.656Z,53.15
2018-05-31T06:50:06.697Z,52.49
2018-05-31T06:52:35.898Z,52.65
2018-05-31T06:55:04.927Z,52.77
2018-05-31T06:57:33.943Z,51.92
2018-05-31T07:00:03.289Z,52.06
2018-05-31T07:02:32.563Z,52.19
2018-05-31T07:05:01.805Z,52.06
2018-05-31T07:07:30.848Z,52.25
2018-05-31T07:09:59.938Z,52.28
2018-05-31T07:12:28.927Z,52.65
2018-05-31T07:14:57.896Z,52.06
2018-05-31T07:17:26.974Z,51.82
2018-05-31T07:19:56.011Z,51.80
2018-05-31T07:22:25.065Z,51.12
2018-05-31T07:24:54.050Z,51.08
2018-05-31T07:27:23.286Z,49.90
2018-05-31T07:29:52.534Z,48.79
2018-05-31T07:32:21.742Z,48.49
2018-05-31T07:34:51.558Z,48.90
2018-05-31T07:37:20.566Z,48.23
2018-05-31T07:39:49.571Z,47.39
2018-05-31T07:42:18.789Z,47.17
2018-05-31T07:44:48.049Z,46.66
2018-05-31T07:47:17.321Z,47.03
2018-05-31T07:49:46.334Z,46.15
2018-05-31T07:52:15.544Z,46.02
2018-05-31T07:54:44.794Z,45.57
2018-05-31T07:57:14.017Z,45.39
2018-05-31T07:59:43.022Z,46.28
2018-05-31T08:02:12.033Z,46.00
2018-05-31T08:04:41.051Z,45.54
2018-05-31T08:07:10.066Z,45.26
2018-05-31T08:09:39.322Z,45.19
2018-05-31T08:12:08.380Z,44.63
2018-05-31T08:14:37.494Z,43.56
2018-05-31T08:17:06.803Z,42.81
2018-05-31T08:19:35.840Z,42.90
2018-05-31T08:22:05.269Z,42.63
2018-05-31T08:24:34.346Z,40.83
2018-05-31T08:27:03.350Z,40.73
2018-05-31T08:29:32.322Z,41.26
2018-05-31T08:32:01.705Z,41.30
2018-05-31T08:34:31.001Z,40.04
2018-05-31T08:36:59.987Z,40.46
2018-05-31T08:39:29.001Z,40.50
2018-05-31T08:41:58.036Z,39.96
2018-05-31T08:44:27.082Z,39.98
2018-05-31T08:46:56.104Z,38.32
2018-05-31T08:49:25.129Z,38.35
2018-05-31T08:51:54.099Z,38.16
2018-05-31T08:54:24.318Z,36.71
2018-05-31T08:56:55.853Z,36.96
2018-05-31T08:59:26.688Z,37.22
2018-05-31T09:01:57.710Z,36.82
2018-05-31T09:04:28.552Z,36.50
2018-05-31T09:07:00.185Z,35.70
2018-05-31T09:09:30.989Z,36.02
2018-05-31T09:12:01.458Z,35.24
2018-05-31T09:14:32.541Z,36.14
2018-05-31T09:17:02.874Z,35.20
2018-05-31T09:19:33.474Z,35.06
2018-05-31T09:22:04.159Z,35.11
2018-05-31T09:24:33.119Z,34.60
2018-05-31T09:27:03.329Z,34.69
2018-05-31T09:29:34.460Z,35.06
2018-05-31T09:32:05.669Z,34.31
2018-05-31T09:34:36.498Z,34.42
2018-05-31T09:37:07.502Z,33.01
2018-05-31T09:39:38.395Z,32.65
2018-05-31T09:42:09.328Z,33.57
2018-05-31T09:44:40.502Z,33.63
2018-05-31T09:47:12.390Z,32.75
2018-05-31T09:49:41.374Z,32.82
2018-05-31T09:52:10.602Z,32.44
2018-05-31T09:54:39.665Z,33.07
2018-05-31T09:57:08.638Z,33.10
2018-05-31T09:59:37.625Z,33.15
2018-05-31T10:02:06.694Z,31.94
2018-05-31T10:04:35.687Z,31.68
2018-05-31T10:07:05.012Z,32.32
2018-05-31T10:09:34.002Z,32.39
2018-05-31T10:12:02.990Z,31.92
2018-05-31T10:14:32.015Z,31.49
2018-05-31T10:17:01.078Z,32.04
2018-05-31T10:19:30.049Z,31.68
2018-05-31T10:21:59.198Z,31.51
2018-05-31T10:24:28.220Z,31.19
2018-05-31T10:26:57.258Z,29.65
2018-05-31T10:29:26.238Z,30.05
2018-05-31T10:31:55.222Z,30.66
2018-05-31T10:34:24.295Z,30.75
2018-05-31T10:36:53.629Z,30.25
2018-05-31T10:39:22.682Z,29.77
2018-05-31T10:41:51.854Z,29.45
2018-05-31T10:44:20.898Z,28.79
2018-05-31T10:46:50.220Z,29.14
2018-05-31T10:49:19.242Z,28.93
2018-05-31T10:51:48.323Z,29.07
2018-05-31T10:54:17.609Z,28.40
2018-05-31T10:56:46.663Z,28.30
2018-05-31T10:59:16.325Z,27.89
2018-05-31T11:01:45.769Z,26.73
2018-05-31T11:04:14.815Z,27.50
2018-05-31T11:06:46.084Z,27.76
2018-05-31T11:09:16.000Z,27.94
2018-05-31T11:11:45.694Z,28.35
2018-05-31T11:14:18.876Z,28.70
2018-05-31T11:16:50.675Z,28.21
2018-05-31T11:19:20.257Z,27.19
2018-05-31T11:21:50.286Z,27.48
2018-05-31T11:24:22.188Z,27.30
2018-05-31T11:26:52.370Z,27.37
2018-05-31T11:29:22.482Z,26.74
2018-05-31T11:31:53.031Z,27.27
2018-05-31T11:34:23.507Z,26.63
2018-05-31T11:36:54.138Z,26.83
2018-05-31T11:39:23.154Z,26.67
2018-05-31T11:57:31.060Z,24.48
2018-05-31T12:00:00.036Z,24.41
2018-05-31T12:02:29.053Z,24.25
2018-05-31T12:04:58.076Z,24.49
2018-05-31T12:07:27.119Z,25.45
2018-05-31T12:09:56.101Z,25.17
2018-05-31T12:12:25.158Z,25.03
2018-05-31T12:14:54.206Z,25.59
2018-05-31T12:17:23.267Z,25.21
2018-05-31T12:19:52.904Z,23.79
2018-05-31T12:22:21.919Z,23.76
2018-05-31T12:24:50.900Z,23.77
2018-05-31T12:27:19.921Z,23.87
2018-05-31T12:29:48.933Z,23.15
2018-05-31T12:32:18.019Z,22.36
2018-05-31T12:34:47.168Z,23.15
2018-05-31T12:37:16.199Z,22.24
2018-05-31T12:39:45.201Z,22.12
2018-05-31T12:42:14.207Z,22.70
2018-05-31T12:44:43.174Z,23.32
2018-05-31T12:47:12.204Z,23.96
2018-05-31T12:49:41.192Z,23.58
2018-05-31T12:52:10.162Z,23.79
2018-05-31T12:54:39.154Z,23.17
2018-05-31T12:57:08.021Z,23.05
2018-05-31T12:59:37.037Z,23.46
2018-05-31T13:02:05.987Z,23.79
2018-05-31T13:04:34.997Z,24.00
2018-05-31T13:07:03.980Z,25.53
2018-05-31T13:09:32.975Z,25.49
2018-05-31T13:12:01.987Z,25.37
2018-05-31T13:14:30.976Z,25.34
2018-05-31T13:17:00.366Z,25.24
2018-05-31T13:19:29.517Z,24.45
2018-05-31T13:21:58.474Z,23.96
2018-05-31T13:24:27.443Z,24.21
2018-05-31T13:26:56.823Z,24.28
2018-05-31T13:29:25.800Z,23.50
2018-05-31T13:31:54.766Z,23.69
2018-05-31T13:34:23.773Z,23.58
2018-05-31T13:36:52.764Z,23.86
2018-05-31T13:39:21.726Z,22.93
2018-05-31T13:41:50.764Z,22.92
2018-05-31T13:44:19.831Z,23.79
2018-05-31T13:46:48.826Z,23.49
2018-05-31T13:49:18.433Z,23.58
2018-05-31T13:51:47.425Z,23.07
2018-05-31T13:54:16.423Z,23.13
2018-05-31T13:56:45.357Z,23.07
2018-05-31T13:59:14.336Z,23.16
2018-05-31T14:01:43.305Z,23.37
2018-05-31T14:04:12.336Z,23.57
2018-05-31T14:06:41.306Z,22.90
2018-05-31T14:09:10.346Z,22.47
2018-05-31T14:11:39.318Z,21.95
2018-05-31T14:14:08.305Z,22.10
2018-05-31T14:16:37.275Z,22.46
2018-05-31T14:19:06.226Z,22.60
2018-05-31T14:21:35.243Z,22.55
2018-05-31T14:24:04.209Z,22.66
2018-05-31T14:26:34.091Z,22.43
2018-05-31T14:29:03.116Z,22.01
2018-05-31T14:31:32.110Z,21.91
2018-05-31T14:34:02.031Z,21.94
2018-05-31T14:36:31.576Z,22.27
2018-05-31T14:39:00.551Z,22.24
2018-05-31T14:41:29.245Z,22.04
2018-05-31T14:43:58.248Z,23.15
2018-05-31T14:46:27.216Z,24.36
2018-05-31T14:48:56.222Z,24.82
2018-05-31T14:51:25.218Z,25.73
2018-05-31T14:53:54.233Z,25.98
2018-05-31T14:56:23.448Z,26.01
2018-05-31T14:58:53.023Z,26.65
2018-05-31T15:01:22.003Z,26.63
2018-05-31T15:03:51.011Z,26.96
2018-05-31T15:06:19.987Z,27.13
2018-05-31T15:08:48.993Z,28.78
2018-05-31T15:11:17.971Z,29.30
2018-05-31T15:13:46.964Z,29.10
2018-05-31T15:16:16.807Z,29.68
2018-05-31T15:18:45.616Z,30.04
2018-05-31T15:21:14.489Z,30.13
2018-05-31T15:23:43.509Z,30.14
2018-05-31T15:26:12.540Z,30.01
2018-05-31T15:28:41.543Z,29.58
2018-05-31T15:31:10.548Z,29.69
2018-05-31T15:33:39.539Z,29.93
2018-05-31T15:36:08.510Z,29.56
2018-05-31T15:38:37.593Z,29.84
2018-05-31T15:41:06.571Z,29.31
2018-05-31T15:43:35.550Z,28.79
2018-05-31T15:46:04.625Z,28.74
2018-05-31T15:48:33.595Z,28.68
2018-05-31T15:51:02.605Z,28.52
2018-05-31T15:53:31.685Z,28.51
2018-05-31T15:56:00.820Z,28.61
2018-05-31T15:58:29.794Z,28.38
2018-05-31T16:00:58.792Z,28.47
2018-05-31T16:03:27.771Z,28.37
2018-05-31T16:05:56.783Z,28.79
2018-05-31T16:08:25.742Z,29.01
2018-05-31T16:10:54.690Z,28.20
2018-05-31T16:13:23.700Z,28.63
2018-05-31T16:15:52.699Z,28.50
2018-05-31T16:18:21.733Z,28.36
2018-05-31T16:20:50.713Z,28.73
2018-05-31T16:23:19.726Z,28.78
2018-05-31T16:25:49.451Z,28.73
2018-05-31T16:28:18.431Z,28.32
2018-05-31T16:30:47.425Z,28.65
2018-05-31T16:33:16.761Z,29.50
2018-05-31T16:35:45.796Z,29.99
2018-05-31T16:38:14.777Z,30.82
2018-05-31T16:40:43.801Z,31.00
2018-05-31T16:43:13.415Z,32.71
2018-05-31T16:45:42.371Z,33.45
2018-05-31T16:48:11.327Z,33.76
2018-05-31T16:50:40.367Z,34.20
2018-05-31T16:53:09.401Z,34.19
2018-05-31T16:55:38.850Z,33.95
2018-05-31T16:58:07.968Z,34.29
2018-05-31T17:00:36.938Z,33.75
2018-05-31T17:03:05.938Z,34.34
2018-05-31T17:05:34.939Z,34.75
2018-05-31T17:08:03.970Z,35.16
2018-05-31T17:10:32.982Z,35.68
2018-05-31T17:13:02.544Z,35.77
2018-05-31T17:15:32.264Z,35.57
2018-05-31T17:18:01.307Z,35.36
2018-05-31T17:20:30.266Z,35.40
2018-05-31T17:22:59.304Z,35.43
2018-05-31T17:25:28.275Z,35.75
2018-05-31T17:27:57.248Z,35.91
2018-05-31T17:30:26.274Z,36.09
2018-05-31T17:32:55.315Z,36.15
2018-05-31T17:35:24.354Z,36.07
2018-05-31T17:37:53.394Z,35.91
2018-05-31T17:40:22.379Z,35.93
2018-05-31T17:42:51.397Z,35.46
2018-05-31T17:45:21.271Z,35.30
2018-05-31T17:47:50.295Z,35.70
2018-05-31T17:50:19.274Z,35.71
2018-05-31T17:52:48.254Z,35.85
2018-05-31T17:55:17.380Z,35.97
2018-05-31T17:57:46.605Z,36.13
2018-05-31T18:00:15.599Z,36.22
2018-05-31T18:02:44.716Z,36.02
2018-05-31T18:05:13.731Z,36.22
2018-05-31T18:07:42.821Z,36.39
2018-05-31T18:10:11.845Z,36.53
2018-05-31T18:12:41.033Z,36.61
2018-05-31T18:15:10.076Z,36.34
2018-05-31T18:17:39.100Z,36.54
2018-05-31T18:20:08.085Z,36.30
2018-05-31T18:22:37.134Z,36.03
2018-05-31T18:25:06.234Z,35.77
2018-05-31T18:27:35.305Z,36.18
2018-05-31T18:30:04.262Z,36.22
2018-05-31T18:32:33.346Z,36.41
2018-05-31T18:35:02.445Z,36.72
2018-05-31T18:37:31.488Z,37.04
2018-05-31T18:40:00.752Z,37.04
2018-05-31T18:42:30.052Z,37.17
2018-05-31T18:44:59.052Z,37.36
2018-05-31T18:47:28.151Z,38.08
2018-05-31T18:49:57.241Z,38.35
2018-05-31T18:52:27.134Z,38.03
2018-05-31T18:54:56.504Z,38.06
2018-05-31T18:57:25.623Z,38.23
2018-05-31T18:59:54.676Z,38.05
2018-05-31T19:02:23.967Z,38.09
2018-05-31T19:04:53.130Z,38.25
2018-05-31T19:07:21.980Z,38.34
2018-05-31T19:09:51.098Z,38.83
2018-05-31T19:12:27.244Z,39.04
2018-05-31T19:14:56.427Z,39.31
2018-05-31T19:17:25.968Z,40.06
2018-05-31T19:19:55.971Z,40.08
2018-05-31T19:22:26.505Z,39.63
2018-05-31T19:25:01.182Z,39.65
2018-05-31T19:27:31.021Z,39.75
2018-05-31T19:30:06.111Z,39.75
2018-05-31T19:32:36.931Z,39.84
2018-05-31T19:35:07.210Z,40.04
2018-05-31T19:37:38.524Z,40.08
2018-05-31T19:40:08.339Z,40.20
2018-05-31T19:42:44.587Z,40.39
2018-05-31T19:45:15.467Z,40.65
2018-05-31T19:47:45.943Z,41.14
2018-05-31T19:50:16.863Z,41.16
2018-05-31T19:52:53.156Z,41.42
2018-05-31T19:55:24.328Z,42.06
2018-05-31T19:58:00.564Z,42.60
2018-05-31T20:00:36.584Z,42.66
2018-05-31T20:03:12.382Z,43.00
2018-05-31T20:05:42.983Z,43.60
2018-05-31T20:08:13.152Z,44.17
2018-05-31T20:10:43.312Z,44.29
2018-05-31T20:13:13.467Z,44.32
2018-05-31T20:15:45.061Z,44.13
2018-05-31T20:18:15.626Z,44.22
2018-05-31T20:20:45.752Z,44.03
2018-05-31T20:23:16.413Z,44.08
2018-05-31T20:25:47.037Z,44.18
2018-05-31T20:28:17.198Z,44.49
2018-05-31T20:30:47.029Z,44.46
2018-05-31T20:33:16.945Z,44.54
2018-05-31T20:35:46.484Z,44.70
2018-05-31T20:38:15.977Z,45.55
2018-05-31T20:40:45.275Z,45.65
2018-05-31T20:43:14.397Z,45.74
2018-05-31T20:45:44.335Z,45.62
2018-05-31T20:48:13.443Z,45.76
2018-05-31T20:50:42.582Z,45.85
2018-05-31T20:53:11.614Z,45.89
2018-05-31T20:55:40.988Z,46.10
2018-05-31T20:58:10.038Z,46.24
2018-05-31T21:00:39.509Z,46.56
2018-05-31T21:03:08.735Z,46.86
2018-05-31T21:05:37.810Z,47.11
2018-05-31T21:08:07.569Z,47.22
2018-05-31T21:10:36.521Z,47.30
2018-05-31T21:13:05.550Z,47.44
2018-05-31T21:15:34.524Z,47.57
2018-05-31T21:18:03.270Z,47.80
2018-05-31T21:20:32.359Z,47.93
2018-05-31T21:23:01.326Z,48.08
2018-05-31T21:25:30.329Z,48.14
2018-05-31T21:27:59.351Z,48.30
2018-05-31T21:30:28.295Z,48.50
2018-05-31T21:32:57.655Z,48.82
2018-05-31T21:35:26.684Z,48.92
2018-05-31T21:37:55.827Z,49.32
2018-05-31T21:40:24.853Z,49.16
2018-05-31T21:42:53.889Z,49.22
2018-05-31T21:45:23.002Z,49.26
2018-05-31T21:47:52.096Z,49.50
2018-05-31T21:50:21.074Z,49.67
2018-05-31T21:52:50.042Z,49.98
2018-05-31T21:55:19.124Z,50.05
2018-05-31T21:57:48.075Z,50.16
2018-05-31T22:00:32.706Z,50.31
2018-05-31T22:03:01.650Z,50.43
2018-05-31T22:05:30.621Z,50.61
2018-05-31T22:07:59.625Z,50.74
2018-05-31T22:10:32.905Z,50.77
2018-05-31T22:13:01.934Z,50.93
2018-05-31T22:15:31.239Z,50.95
2018-05-31T22:18:01.142Z,50.99
2018-05-31T22:20:30.190Z,51.09
2018-05-31T22:22:59.162Z,51.16
2018-05-31T22:25:28.139Z,51.12
2018-05-31T22:27:57.121Z,51.82
2018-05-31T22:30:26.066Z,51.85
2018-05-31T22:32:55.075Z,52.56
2018-05-31T22:35:24.022Z,52.00
2018-05-31T22:37:52.961Z,51.93
2018-05-31T22:40:21.985Z,52.02
2018-05-31T22:42:51.405Z,52.11
2018-05-31T22:45:20.392Z,52.12
2018-05-31T22:47:49.500Z,52.28
2018-05-31T22:50:18.470Z,52.41
2018-05-31T22:52:47.428Z,52.50
2018-05-31T22:55:16.391Z,52.71
2018-05-31T22:57:45.343Z,52.87
2018-05-31T23:00:13.766Z,53.01
2018-05-31T23:02:42.736Z,53.16
2018-05-31T23:05:11.681Z,53.27
2018-05-31T23:07:40.661Z,53.34
2018-05-31T23:10:09.618Z,53.94
2018-05-31T23:12:38.593Z,53.62
2018-05-31T23:15:07.822Z,54.17
2018-05-31T23:17:36.793Z,53.99
2018-05-31T23:20:05.738Z,53.95
2018-05-31T23:22:34.771Z,53.79
2018-05-31T23:25:03.717Z,53.74
2018-05-31T23:27:32.716Z,53.88
2018-05-31T23:30:01.745Z,54.05
2018-05-31T23:32:30.784Z,54.14
2018-05-31T23:34:59.734Z,53.99
2018-05-31T23:37:28.706Z,54.25
2018-05-31T23:39:57.661Z,54.60
2018-05-31T23:42:27.340Z,54.63
2018-05-31T23:44:56.278Z,54.49
2018-05-31T23:47:25.211Z,54.83
2018-05-31T23:49:54.210Z,54.69
2018-05-31T23:52:23.148Z,55.04
2018-05-31T23:54:52.115Z,55.01
2018-05-31T23:57:21.098Z,56.62
2018-05-31T23:59:50.043Z,55.56
